sensor_id;sensor_type;location;lat;lon;timestamp;temperature;humidity
56542;DHT22;42438;53.174;6.730;2022-11-20T00:01:50;-0.20;99.90
56542;DHT22;42438;53.174;6.730;2022-11-20T00:04:21;0.00;99.90
56542;DHT22;42438;53.174;6.730;2022-11-20T00:06:51;0.00;99.90
56542;DHT22;42438;53.174;6.730;2022-11-20T00:09:22;0.00;99.90
56542;DHT22;42438;53.174;6.730;2022-11-20T00:11:52;-0.10;99.90
56542;DHT22;42438;53.174;6.730;2022-11-20T00:14:23;-0.10;99.90
56542;DHT22;42438;53.174;6.730;2022-11-20T00:16:54;-0.10;99.90
56542;DHT22;42438;53.174;6.730;2022-11-20T00:19:25;-0.10;99.90
56542;DHT22;42438;53.174;6.730;2022-11-20T00:21:56;-0.10;99.90
56542;DHT22;42438;53.174;6.730;2022-11-20T00:24:26;-0.10;99.90
56542;DHT22;42438;53.174;6.730;2022-11-20T00:26:57;-0.10;99.90
56542;DHT22;42438;53.174;6.730;2022-11-20T00:29:28;0.70;99.90
56542;DHT22;42438;53.174;6.730;2022-11-20T00:31:58;0.00;99.90
56542;DHT22;42438;53.174;6.730;2022-11-20T00:34:29;0.10;99.90
56542;DHT22;42438;53.174;6.730;2022-11-20T00:36:59;0.00;99.90
56542;DHT22;42438;53.174;6.730;2022-11-20T00:39:30;0.00;99.90
56542;DHT22;42438;53.174;6.730;2022-11-20T00:42:01;0.10;99.90
56542;DHT22;42438;53.174;6.730;2022-11-20T00:44:31;-0.10;99.90
56542;DHT22;42438;53.174;6.730;2022-11-20T00:47:02;0.00;99.90
56542;DHT22;42438;53.174;6.730;2022-11-20T00:49:33;0.10;99.90
56542;DHT22;42438;53.174;6.730;2022-11-20T00:52:03;-0.10;99.90
56542;DHT22;42438;53.174;6.730;2022-11-20T00:54:34;0.10;99.90
56542;DHT22;42438;53.174;6.730;2022-11-20T00:57:05;-0.10;99.90
56542;DHT22;42438;53.174;6.730;2022-11-20T00:59:35;-0.10;99.90
56542;DHT22;42438;53.174;6.730;2022-11-20T01:02:06;-0.10;99.90
56542;DHT22;42438;53.174;6.730;2022-11-20T01:04:36;-0.10;99.90
56542;DHT22;42438;53.174;6.730;2022-11-20T01:07:07;0.00;99.90
56542;DHT22;42438;53.174;6.730;2022-11-20T01:09:38;0.00;99.90
56542;DHT22;42438;53.174;6.730;2022-11-20T01:12:08;-0.10;99.90
56542;DHT22;42438;53.174;6.730;2022-11-20T01:14:39;-0.20;99.90
56542;DHT22;42438;53.174;6.730;2022-11-20T01:17:10;-0.10;99.90
56542;DHT22;42438;53.174;6.730;2022-11-20T01:19:40;-0.20;99.90
56542;DHT22;42438;53.174;6.730;2022-11-20T01:22:11;0.00;99.90
56542;DHT22;42438;53.174;6.730;2022-11-20T01:24:41;-0.20;99.90
56542;DHT22;42438;53.174;6.730;2022-11-20T01:27:12;-0.10;99.90
56542;DHT22;42438;53.174;6.730;2022-11-20T01:29:43;0.00;99.90
56542;DHT22;42438;53.174;6.730;2022-11-20T01:32:13;0.00;99.90
56542;DHT22;42438;53.174;6.730;2022-11-20T01:34:44;-0.20;99.90
56542;DHT22;42438;53.174;6.730;2022-11-20T01:37:15;-0.20;99.90
56542;DHT22;42438;53.174;6.730;2022-11-20T01:39:46;-0.10;99.90
56542;DHT22;42438;53.174;6.730;2022-11-20T01:42:17;-0.10;99.90
56542;DHT22;42438;53.174;6.730;2022-11-20T01:48:14;-0.10;99.90
56542;DHT22;42438;53.174;6.730;2022-11-20T01:50:45;0.00;99.90
56542;DHT22;42438;53.174;6.730;2022-11-20T01:53:18;0.00;99.90
56542;DHT22;42438;53.174;6.730;2022-11-20T01:55:53;0.80;99.90
56542;DHT22;42438;53.174;6.730;2022-11-20T01:58:28;0.00;99.90
56542;DHT22;42438;53.174;6.730;2022-11-20T02:01:00;0.70;99.90
56542;DHT22;42438;53.174;6.730;2022-11-20T02:03:31;-0.10;99.90
56542;DHT22;42438;53.174;6.730;2022-11-20T02:08:55;0.00;99.90
56542;DHT22;42438;53.174;6.730;2022-11-20T02:11:25;0.10;99.90
56542;DHT22;42438;53.174;6.730;2022-11-20T02:13:56;0.00;99.90
56542;DHT22;42438;53.174;6.730;2022-11-20T02:16:45;0.00;99.90
56542;DHT22;42438;53.174;6.730;2022-11-20T02:19:27;0.00;99.90
56542;DHT22;42438;53.174;6.730;2022-11-20T02:24:32;0.00;99.90
56542;DHT22;42438;53.174;6.730;2022-11-20T02:27:06;0.10;99.90
56542;DHT22;42438;53.174;6.730;2022-11-20T02:30:04;0.10;99.90
56542;DHT22;42438;53.174;6.730;2022-11-20T02:32:38;0.10;99.90
56542;DHT22;42438;53.174;6.730;2022-11-20T02:35:38;0.90;99.90
56542;DHT22;42438;53.174;6.730;2022-11-20T02:38:02;0.20;99.90
56542;DHT22;42438;53.174;6.730;2022-11-20T02:40:33;0.20;99.90
56542;DHT22;42438;53.174;6.730;2022-11-20T02:43:03;0.10;99.90
56542;DHT22;42438;53.174;6.730;2022-11-20T02:45:34;0.10;99.90
56542;DHT22;42438;53.174;6.730;2022-11-20T02:48:06;0.10;99.90
56542;DHT22;42438;53.174;6.730;2022-11-20T02:50:38;0.10;99.90
56542;DHT22;42438;53.174;6.730;2022-11-20T02:53:10;1.00;99.90
56542;DHT22;42438;53.174;6.730;2022-11-20T02:55:40;0.10;99.90
56542;DHT22;42438;53.174;6.730;2022-11-20T02:58:11;0.10;99.90
56542;DHT22;42438;53.174;6.730;2022-11-20T03:00:42;0.00;99.90
56542;DHT22;42438;53.174;6.730;2022-11-20T03:03:12;0.00;99.90
56542;DHT22;42438;53.174;6.730;2022-11-20T03:05:43;0.10;99.90
56542;DHT22;42438;53.174;6.730;2022-11-20T03:08:14;0.10;99.90
56542;DHT22;42438;53.174;6.730;2022-11-20T03:10:44;0.10;99.90
56542;DHT22;42438;53.174;6.730;2022-11-20T03:13:15;0.20;99.90
56542;DHT22;42438;53.174;6.730;2022-11-20T03:15:46;0.10;99.90
56542;DHT22;42438;53.174;6.730;2022-11-20T03:18:16;0.10;99.90
56542;DHT22;42438;53.174;6.730;2022-11-20T03:20:47;0.20;99.90
56542;DHT22;42438;53.174;6.730;2022-11-20T03:23:18;0.10;99.90
56542;DHT22;42438;53.174;6.730;2022-11-20T03:25:48;0.10;99.90
56542;DHT22;42438;53.174;6.730;2022-11-20T03:28:19;0.10;99.90
56542;DHT22;42438;53.174;6.730;2022-11-20T03:30:49;0.20;99.90
56542;DHT22;42438;53.174;6.730;2022-11-20T03:33:20;0.20;99.90
56542;DHT22;42438;53.174;6.730;2022-11-20T03:35:51;0.20;99.90
56542;DHT22;42438;53.174;6.730;2022-11-20T03:38:21;0.20;99.90
56542;DHT22;42438;53.174;6.730;2022-11-20T03:41:04;0.30;99.90
56542;DHT22;42438;53.174;6.730;2022-11-20T03:43:35;0.20;99.90
56542;DHT22;42438;53.174;6.730;2022-11-20T03:46:07;0.30;99.90
56542;DHT22;42438;53.174;6.730;2022-11-20T03:48:37;0.60;99.90
56542;DHT22;42438;53.174;6.730;2022-11-20T03:51:15;0.10;99.90
56542;DHT22;42438;53.174;6.730;2022-11-20T03:53:48;0.20;99.90
56542;DHT22;42438;53.174;6.730;2022-11-20T03:56:22;0.30;99.90
56542;DHT22;42438;53.174;6.730;2022-11-20T03:58:53;0.20;99.90
56542;DHT22;42438;53.174;6.730;2022-11-20T04:01:30;0.10;99.90
56542;DHT22;42438;53.174;6.730;2022-11-20T04:04:01;0.10;99.90
56542;DHT22;42438;53.174;6.730;2022-11-20T04:06:37;0.80;99.90
56542;DHT22;42438;53.174;6.730;2022-11-20T04:09:08;0.20;99.90
56542;DHT22;42438;53.174;6.730;2022-11-20T04:11:40;0.10;99.90
56542;DHT22;42438;53.174;6.730;2022-11-20T04:14:15;0.10;99.90
56542;DHT22;42438;53.174;6.730;2022-11-20T04:16:46;0.20;99.90
56542;DHT22;42438;53.174;6.730;2022-11-20T04:19:17;0.20;99.90
56542;DHT22;42438;53.174;6.730;2022-11-20T04:21:47;0.20;99.90
56542;DHT22;42438;53.174;6.730;2022-11-20T04:24:18;0.20;99.90
56542;DHT22;42438;53.174;6.730;2022-11-20T04:26:49;0.30;99.90
56542;DHT22;42438;53.174;6.730;2022-11-20T04:29:19;0.20;99.90
56542;DHT22;42438;53.174;6.730;2022-11-20T04:31:50;0.20;99.90
56542;DHT22;42438;53.174;6.730;2022-11-20T04:34:21;0.20;99.90
56542;DHT22;42438;53.174;6.730;2022-11-20T04:36:51;0.30;99.90
56542;DHT22;42438;53.174;6.730;2022-11-20T04:39:22;0.20;99.90
56542;DHT22;42438;53.174;6.730;2022-11-20T04:41:52;0.30;99.90
56542;DHT22;42438;53.174;6.730;2022-11-20T04:44:43;0.60;99.90
56542;DHT22;42438;53.174;6.730;2022-11-20T04:47:14;0.30;99.90
56542;DHT22;42438;53.174;6.730;2022-11-20T04:49:44;0.40;99.90
56542;DHT22;42438;53.174;6.730;2022-11-20T04:52:15;0.20;99.90
56542;DHT22;42438;53.174;6.730;2022-11-20T04:54:46;0.30;99.90
56542;DHT22;42438;53.174;6.730;2022-11-20T04:57:16;0.30;99.90
56542;DHT22;42438;53.174;6.730;2022-11-20T04:59:47;0.30;99.90
56542;DHT22;42438;53.174;6.730;2022-11-20T05:02:17;0.30;99.90
56542;DHT22;42438;53.174;6.730;2022-11-20T05:04:48;0.40;99.90
56542;DHT22;42438;53.174;6.730;2022-11-20T05:07:19;0.30;99.90
56542;DHT22;42438;53.174;6.730;2022-11-20T05:09:50;0.30;99.90
56542;DHT22;42438;53.174;6.730;2022-11-20T05:12:20;0.30;99.90
56542;DHT22;42438;53.174;6.730;2022-11-20T05:14:51;1.00;99.90
56542;DHT22;42438;53.174;6.730;2022-11-20T05:17:21;0.30;99.90
56542;DHT22;42438;53.174;6.730;2022-11-20T05:19:52;0.40;99.90
56542;DHT22;42438;53.174;6.730;2022-11-20T05:22:23;0.20;99.90
56542;DHT22;42438;53.174;6.730;2022-11-20T05:24:53;1.00;99.90
56542;DHT22;42438;53.174;6.730;2022-11-20T05:27:24;0.30;99.90
56542;DHT22;42438;53.174;6.730;2022-11-20T05:29:55;0.30;99.90
56542;DHT22;42438;53.174;6.730;2022-11-20T05:32:25;1.00;99.90
56542;DHT22;42438;53.174;6.730;2022-11-20T05:34:56;0.30;99.90
56542;DHT22;42438;53.174;6.730;2022-11-20T05:37:27;0.30;99.90
56542;DHT22;42438;53.174;6.730;2022-11-20T05:39:57;0.30;99.90
56542;DHT22;42438;53.174;6.730;2022-11-20T05:42:30;0.30;99.90
56542;DHT22;42438;53.174;6.730;2022-11-20T05:45:03;0.20;99.90
56542;DHT22;42438;53.174;6.730;2022-11-20T05:47:34;0.20;99.90
56542;DHT22;42438;53.174;6.730;2022-11-20T05:50:05;0.40;99.90
56542;DHT22;42438;53.174;6.730;2022-11-20T05:52:36;0.30;99.90
56542;DHT22;42438;53.174;6.730;2022-11-20T05:55:07;0.20;99.90
56542;DHT22;42438;53.174;6.730;2022-11-20T05:57:38;0.30;99.90
56542;DHT22;42438;53.174;6.730;2022-11-20T06:00:09;0.20;99.90
56542;DHT22;42438;53.174;6.730;2022-11-20T06:02:39;0.20;99.90
56542;DHT22;42438;53.174;6.730;2022-11-20T06:05:10;0.30;99.90
56542;DHT22;42438;53.174;6.730;2022-11-20T06:07:41;0.20;99.90
56542;DHT22;42438;53.174;6.730;2022-11-20T06:10:12;0.30;99.90
56542;DHT22;42438;53.174;6.730;2022-11-20T06:12:42;0.30;99.90
56542;DHT22;42438;53.174;6.730;2022-11-20T06:15:13;0.20;99.90
56542;DHT22;42438;53.174;6.730;2022-11-20T06:17:44;0.20;99.90
56542;DHT22;42438;53.174;6.730;2022-11-20T06:20:14;0.30;99.90
56542;DHT22;42438;53.174;6.730;2022-11-20T06:22:45;0.30;99.90
56542;DHT22;42438;53.174;6.730;2022-11-20T06:25:16;0.30;99.90
56542;DHT22;42438;53.174;6.730;2022-11-20T06:27:46;0.30;99.90
56542;DHT22;42438;53.174;6.730;2022-11-20T06:30:17;0.30;99.90
56542;DHT22;42438;53.174;6.730;2022-11-20T06:32:48;0.30;99.90
56542;DHT22;42438;53.174;6.730;2022-11-20T06:35:18;0.30;99.90
56542;DHT22;42438;53.174;6.730;2022-11-20T06:37:49;0.20;99.90
56542;DHT22;42438;53.174;6.730;2022-11-20T06:40:19;0.30;99.90
56542;DHT22;42438;53.174;6.730;2022-11-20T06:42:50;0.20;99.90
56542;DHT22;42438;53.174;6.730;2022-11-20T06:45:21;0.30;99.90
56542;DHT22;42438;53.174;6.730;2022-11-20T06:47:52;0.30;99.90
56542;DHT22;42438;53.174;6.730;2022-11-20T06:50:23;0.30;99.90
56542;DHT22;42438;53.174;6.730;2022-11-20T06:52:53;0.40;99.90
56542;DHT22;42438;53.174;6.730;2022-11-20T06:55:24;0.30;99.90
56542;DHT22;42438;53.174;6.730;2022-11-20T06:57:54;0.40;99.90
56542;DHT22;42438;53.174;6.730;2022-11-20T07:00:25;0.30;99.90
56542;DHT22;42438;53.174;6.730;2022-11-20T07:02:56;0.30;99.90
56542;DHT22;42438;53.174;6.730;2022-11-20T07:05:26;0.30;99.90
56542;DHT22;42438;53.174;6.730;2022-11-20T07:07:57;0.30;99.90
56542;DHT22;42438;53.174;6.730;2022-11-20T07:10:28;0.40;99.90
56542;DHT22;42438;53.174;6.730;2022-11-20T07:12:59;0.40;99.90
56542;DHT22;42438;53.174;6.730;2022-11-20T07:15:30;0.40;99.90
56542;DHT22;42438;53.174;6.730;2022-11-20T07:18:01;0.40;99.90
56542;DHT22;42438;53.174;6.730;2022-11-20T07:20:32;0.40;99.90
56542;DHT22;42438;53.174;6.730;2022-11-20T07:23:02;0.50;99.90
56542;DHT22;42438;53.174;6.730;2022-11-20T07:25:33;0.40;99.90
56542;DHT22;42438;53.174;6.730;2022-11-20T07:28:04;0.50;99.90
56542;DHT22;42438;53.174;6.730;2022-11-20T07:30:34;0.50;99.90
56542;DHT22;42438;53.174;6.730;2022-11-20T07:33:05;0.50;99.90
56542;DHT22;42438;53.174;6.730;2022-11-20T07:35:36;0.60;99.90
56542;DHT22;42438;53.174;6.730;2022-11-20T07:38:06;0.60;99.90
56542;DHT22;42438;53.174;6.730;2022-11-20T07:40:38;0.60;99.90
56542;DHT22;42438;53.174;6.730;2022-11-20T07:43:09;0.60;99.90
56542;DHT22;42438;53.174;6.730;2022-11-20T07:45:39;0.70;99.90
56542;DHT22;42438;53.174;6.730;2022-11-20T07:48:10;0.60;99.90
56542;DHT22;42438;53.174;6.730;2022-11-20T07:50:41;0.70;99.90
56542;DHT22;42438;53.174;6.730;2022-11-20T07:53:11;0.70;99.90
56542;DHT22;42438;53.174;6.730;2022-11-20T07:55:44;0.70;99.90
56542;DHT22;42438;53.174;6.730;2022-11-20T07:58:14;0.70;99.90
56542;DHT22;42438;53.174;6.730;2022-11-20T08:00:45;0.70;99.90
56542;DHT22;42438;53.174;6.730;2022-11-20T08:03:16;0.80;99.90
56542;DHT22;42438;53.174;6.730;2022-11-20T08:05:47;0.80;99.90
56542;DHT22;42438;53.174;6.730;2022-11-20T08:08:17;0.90;99.90
56542;DHT22;42438;53.174;6.730;2022-11-20T08:10:48;0.80;99.90
56542;DHT22;42438;53.174;6.730;2022-11-20T08:13:19;0.90;99.90
56542;DHT22;42438;53.174;6.730;2022-11-20T08:16:08;0.80;99.90
56542;DHT22;42438;53.174;6.730;2022-11-20T08:18:38;0.80;99.90
56542;DHT22;42438;53.174;6.730;2022-11-20T08:21:09;1.70;99.90
56542;DHT22;42438;53.174;6.730;2022-11-20T08:23:40;0.90;99.90
56542;DHT22;42438;53.174;6.730;2022-11-20T08:26:10;0.90;99.90
56542;DHT22;42438;53.174;6.730;2022-11-20T08:28:41;0.80;99.90
56542;DHT22;42438;53.174;6.730;2022-11-20T08:31:11;0.80;99.90
56542;DHT22;42438;53.174;6.730;2022-11-20T08:33:42;0.80;99.90
56542;DHT22;42438;53.174;6.730;2022-11-20T08:36:13;1.70;99.90
56542;DHT22;42438;53.174;6.730;2022-11-20T08:38:48;1.10;99.90
56542;DHT22;42438;53.174;6.730;2022-11-20T08:41:19;0.90;99.90
56542;DHT22;42438;53.174;6.730;2022-11-20T08:44:02;1.00;99.90
56542;DHT22;42438;53.174;6.730;2022-11-20T08:46:38;1.00;99.90
56542;DHT22;42438;53.174;6.730;2022-11-20T08:49:11;1.00;99.90
56542;DHT22;42438;53.174;6.730;2022-11-20T08:51:42;1.00;99.90
56542;DHT22;42438;53.174;6.730;2022-11-20T08:54:13;1.00;99.90
56542;DHT22;42438;53.174;6.730;2022-11-20T08:56:45;1.10;99.90
56542;DHT22;42438;53.174;6.730;2022-11-20T08:59:16;1.00;99.90
56542;DHT22;42438;53.174;6.730;2022-11-20T09:01:46;1.10;99.90
56542;DHT22;42438;53.174;6.730;2022-11-20T09:04:17;1.20;99.90
56542;DHT22;42438;53.174;6.730;2022-11-20T09:06:48;1.10;99.90
56542;DHT22;42438;53.174;6.730;2022-11-20T09:09:21;1.10;99.90
56542;DHT22;42438;53.174;6.730;2022-11-20T09:11:51;1.10;99.90
56542;DHT22;42438;53.174;6.730;2022-11-20T09:14:22;1.20;99.90
56542;DHT22;42438;53.174;6.730;2022-11-20T09:16:55;1.20;99.90
56542;DHT22;42438;53.174;6.730;2022-11-20T09:19:26;1.20;99.90
56542;DHT22;42438;53.174;6.730;2022-11-20T09:21:57;1.40;99.90
56542;DHT22;42438;53.174;6.730;2022-11-20T09:24:27;1.30;99.90
56542;DHT22;42438;53.174;6.730;2022-11-20T09:27:00;1.30;99.90
56542;DHT22;42438;53.174;6.730;2022-11-20T09:29:31;1.90;99.90
56542;DHT22;42438;53.174;6.730;2022-11-20T09:32:02;1.20;99.90
56542;DHT22;42438;53.174;6.730;2022-11-20T09:34:33;1.20;99.90
56542;DHT22;42438;53.174;6.730;2022-11-20T09:37:03;1.30;99.90
56542;DHT22;42438;53.174;6.730;2022-11-20T09:39:34;1.20;99.90
56542;DHT22;42438;53.174;6.730;2022-11-20T09:47:53;1.30;99.90
56542;DHT22;42438;53.174;6.730;2022-11-20T09:51:31;1.30;99.90
56542;DHT22;42438;53.174;6.730;2022-11-20T09:53:56;1.30;99.90
56542;DHT22;42438;53.174;6.730;2022-11-20T09:56:34;2.00;99.90
56542;DHT22;42438;53.174;6.730;2022-11-20T09:59:08;1.40;99.90
56542;DHT22;42438;53.174;6.730;2022-11-20T10:01:45;1.40;99.90
56542;DHT22;42438;53.174;6.730;2022-11-20T10:04:18;2.20;99.90
56542;DHT22;42438;53.174;6.730;2022-11-20T10:09:34;2.10;99.90
56542;DHT22;42438;53.174;6.730;2022-11-20T10:12:16;1.50;99.90
56542;DHT22;42438;53.174;6.730;2022-11-20T10:18:20;1.50;99.90
56542;DHT22;42438;53.174;6.730;2022-11-20T10:24:07;1.60;99.90
56542;DHT22;42438;53.174;6.730;2022-11-20T10:26:55;1.70;99.90
56542;DHT22;42438;53.174;6.730;2022-11-20T10:29:33;1.70;99.90
56542;DHT22;42438;53.174;6.730;2022-11-20T10:32:15;1.80;99.90
56542;DHT22;42438;53.174;6.730;2022-11-20T10:34:54;1.80;99.90
56542;DHT22;42438;53.174;6.730;2022-11-20T10:37:27;1.80;99.90
56542;DHT22;42438;53.174;6.730;2022-11-20T10:45:48;1.90;99.90
56542;DHT22;42438;53.174;6.730;2022-11-20T10:48:25;1.90;99.90
56542;DHT22;42438;53.174;6.730;2022-11-20T10:54:06;2.00;99.90
56542;DHT22;42438;53.174;6.730;2022-11-20T10:56:42;2.10;99.90
56542;DHT22;42438;53.174;6.730;2022-11-20T10:59:46;2.20;99.90
56542;DHT22;42438;53.174;6.730;2022-11-20T11:02:23;2.20;99.90
56542;DHT22;42438;53.174;6.730;2022-11-20T11:04:54;2.30;99.90
56542;DHT22;42438;53.174;6.730;2022-11-20T11:07:34;2.30;99.90
56542;DHT22;42438;53.174;6.730;2022-11-20T11:10:18;2.40;99.90
56542;DHT22;42438;53.174;6.730;2022-11-20T11:12:49;2.40;99.90
56542;DHT22;42438;53.174;6.730;2022-11-20T11:15:37;3.20;99.90
56542;DHT22;42438;53.174;6.730;2022-11-20T11:18:22;2.60;99.90
56542;DHT22;42438;53.174;6.730;2022-11-20T11:20:54;2.70;99.90
56542;DHT22;42438;53.174;6.730;2022-11-20T11:23:42;2.20;99.90
56542;DHT22;42438;53.174;6.730;2022-11-20T11:26:21;2.90;99.90
56542;DHT22;42438;53.174;6.730;2022-11-20T11:29:01;2.90;99.90
56542;DHT22;42438;53.174;6.730;2022-11-20T11:31:34;3.00;99.90
56542;DHT22;42438;53.174;6.730;2022-11-20T11:34:06;3.00;99.90
56542;DHT22;42438;53.174;6.730;2022-11-20T11:36:37;3.00;99.90
56542;DHT22;42438;53.174;6.730;2022-11-20T11:39:14;2.90;99.90
56542;DHT22;42438;53.174;6.730;2022-11-20T11:41:46;2.90;99.90
56542;DHT22;42438;53.174;6.730;2022-11-20T11:52:49;2.90;99.90
56542;DHT22;42438;53.174;6.730;2022-11-20T12:04:28;3.10;99.90
56542;DHT22;42438;53.174;6.730;2022-11-20T12:07:15;3.10;99.90
56542;DHT22;42438;53.174;6.730;2022-11-20T12:09:52;3.10;99.90
56542;DHT22;42438;53.174;6.730;2022-11-20T12:12:37;3.40;99.90
56542;DHT22;42438;53.174;6.730;2022-11-20T12:15:21;3.00;99.90
56542;DHT22;42438;53.174;6.730;2022-11-20T12:17:53;2.90;99.90
56542;DHT22;42438;53.174;6.730;2022-11-20T12:20:28;2.80;99.90
56542;DHT22;42438;53.174;6.730;2022-11-20T12:23:09;2.80;99.90
56542;DHT22;42438;53.174;6.730;2022-11-20T12:25:47;2.90;99.90
56542;DHT22;42438;53.174;6.730;2022-11-20T12:40:24;3.40;99.90
56542;DHT22;42438;53.174;6.730;2022-11-20T12:58:08;3.80;99.90
56542;DHT22;42438;53.174;6.730;2022-11-20T13:00:16;3.80;99.90
56542;DHT22;42438;53.174;6.730;2022-11-20T13:03:00;3.80;99.90
56542;DHT22;42438;53.174;6.730;2022-11-20T13:14:14;3.70;99.90
56542;DHT22;42438;53.174;6.730;2022-11-20T13:17:42;3.70;99.90
56542;DHT22;42438;53.174;6.730;2022-11-20T13:20:09;3.70;99.90
56542;DHT22;42438;53.174;6.730;2022-11-20T13:22:45;3.70;99.90
56542;DHT22;42438;53.174;6.730;2022-11-20T13:25:24;3.70;99.90
56542;DHT22;42438;53.174;6.730;2022-11-20T13:27:58;3.80;99.90
56542;DHT22;42438;53.174;6.730;2022-11-20T13:30:30;3.70;99.90
56542;DHT22;42438;53.174;6.730;2022-11-20T13:36:00;3.70;99.90
56542;DHT22;42438;53.174;6.730;2022-11-20T13:38:47;3.70;99.90
56542;DHT22;42438;53.174;6.730;2022-11-20T13:41:35;3.70;99.90
56542;DHT22;42438;53.174;6.730;2022-11-20T13:44:22;4.20;99.90
56542;DHT22;42438;53.174;6.730;2022-11-20T13:46:53;4.00;99.90
56542;DHT22;42438;53.174;6.730;2022-11-20T13:49:32;3.70;99.90
56542;DHT22;42438;53.174;6.730;2022-11-20T13:57:39;3.60;99.90
56542;DHT22;42438;53.174;6.730;2022-11-20T14:00:19;3.60;99.90
56542;DHT22;42438;53.174;6.730;2022-11-20T14:05:39;3.40;99.90
56542;DHT22;42438;53.174;6.730;2022-11-20T14:08:22;3.40;99.90
56542;DHT22;42438;53.174;6.730;2022-11-20T14:11:27;3.40;99.90
56542;DHT22;42438;53.174;6.730;2022-11-20T14:14:15;3.40;99.90
56542;DHT22;42438;53.174;6.730;2022-11-20T14:16:47;3.30;99.90
56542;DHT22;42438;53.174;6.730;2022-11-20T14:21:55;3.30;99.90
56542;DHT22;42438;53.174;6.730;2022-11-20T14:24:36;3.20;99.90
56542;DHT22;42438;53.174;6.730;2022-11-20T14:27:16;3.60;99.90
56542;DHT22;42438;53.174;6.730;2022-11-20T14:29:49;3.70;99.90
56542;DHT22;42438;53.174;6.730;2022-11-20T14:32:23;3.20;99.90
56542;DHT22;42438;53.174;6.730;2022-11-20T14:35:01;3.10;99.90
56542;DHT22;42438;53.174;6.730;2022-11-20T14:37:37;3.10;99.90
56542;DHT22;42438;53.174;6.730;2022-11-20T14:42:57;3.00;99.90
56542;DHT22;42438;53.174;6.730;2022-11-20T14:45:28;2.90;99.90
56542;DHT22;42438;53.174;6.730;2022-11-20T14:47:59;2.90;99.90
56542;DHT22;42438;53.174;6.730;2022-11-20T14:50:30;2.80;99.90
56542;DHT22;42438;53.174;6.730;2022-11-20T14:53:01;2.80;99.90
56542;DHT22;42438;53.174;6.730;2022-11-20T14:55:34;3.40;99.90
56542;DHT22;42438;53.174;6.730;2022-11-20T14:58:06;2.70;99.90
56542;DHT22;42438;53.174;6.730;2022-11-20T15:00:37;2.70;99.90
56542;DHT22;42438;53.174;6.730;2022-11-20T15:03:15;2.60;99.90
56542;DHT22;42438;53.174;6.730;2022-11-20T15:05:49;2.60;99.90
56542;DHT22;42438;53.174;6.730;2022-11-20T15:08:20;3.00;99.90
56542;DHT22;42438;53.174;6.730;2022-11-20T15:10:51;2.50;99.90
56542;DHT22;42438;53.174;6.730;2022-11-20T15:13:33;2.50;99.90
56542;DHT22;42438;53.174;6.730;2022-11-20T15:16:20;2.40;99.90
56542;DHT22;42438;53.174;6.730;2022-11-20T15:18:51;2.40;99.90
56542;DHT22;42438;53.174;6.730;2022-11-20T15:21:22;2.40;99.90
56542;DHT22;42438;53.174;6.730;2022-11-20T15:23:53;2.30;99.90
56542;DHT22;42438;53.174;6.730;2022-11-20T15:26:25;2.30;99.90
56542;DHT22;42438;53.174;6.730;2022-11-20T15:28:56;2.30;99.90
56542;DHT22;42438;53.174;6.730;2022-11-20T15:31:27;2.20;99.90
56542;DHT22;42438;53.174;6.730;2022-11-20T15:33:58;2.10;99.90
56542;DHT22;42438;53.174;6.730;2022-11-20T15:36:29;2.10;99.90
56542;DHT22;42438;53.174;6.730;2022-11-20T15:38:59;2.10;99.90
56542;DHT22;42438;53.174;6.730;2022-11-20T15:41:30;2.10;99.90
56542;DHT22;42438;53.174;6.730;2022-11-20T15:44:01;2.00;99.90
56542;DHT22;42438;53.174;6.730;2022-11-20T15:46:35;2.00;99.90
56542;DHT22;42438;53.174;6.730;2022-11-20T15:49:16;1.90;99.90
56542;DHT22;42438;53.174;6.730;2022-11-20T15:51:50;1.90;99.90
56542;DHT22;42438;53.174;6.730;2022-11-20T15:54:21;1.90;99.90
56542;DHT22;42438;53.174;6.730;2022-11-20T15:56:52;1.90;99.90
56542;DHT22;42438;53.174;6.730;2022-11-20T15:59:23;1.90;99.90
56542;DHT22;42438;53.174;6.730;2022-11-20T16:01:54;1.80;99.90
56542;DHT22;42438;53.174;6.730;2022-11-20T16:04:25;1.80;99.90
56542;DHT22;42438;53.174;6.730;2022-11-20T16:06:56;1.80;99.90
56542;DHT22;42438;53.174;6.730;2022-11-20T16:09:27;1.80;99.90
56542;DHT22;42438;53.174;6.730;2022-11-20T16:11:58;1.80;99.90
56542;DHT22;42438;53.174;6.730;2022-11-20T16:14:29;1.80;99.90
56542;DHT22;42438;53.174;6.730;2022-11-20T16:17:18;1.80;99.90
56542;DHT22;42438;53.174;6.730;2022-11-20T16:20:12;1.80;99.90
56542;DHT22;42438;53.174;6.730;2022-11-20T16:22:43;1.80;99.90
56542;DHT22;42438;53.174;6.730;2022-11-20T16:25:14;1.80;99.90
56542;DHT22;42438;53.174;6.730;2022-11-20T16:27:44;2.30;99.90
56542;DHT22;42438;53.174;6.730;2022-11-20T16:30:15;2.00;99.90
56542;DHT22;42438;53.174;6.730;2022-11-20T16:32:45;1.80;99.90
56542;DHT22;42438;53.174;6.730;2022-11-20T16:35:16;1.80;99.90
56542;DHT22;42438;53.174;6.730;2022-11-20T16:37:47;1.90;99.90
56542;DHT22;42438;53.174;6.730;2022-11-20T16:40:18;1.70;99.90
56542;DHT22;42438;53.174;6.730;2022-11-20T16:42:48;1.70;99.90
56542;DHT22;42438;53.174;6.730;2022-11-20T16:45:19;1.70;99.90
56542;DHT22;42438;53.174;6.730;2022-11-20T16:47:50;1.70;99.90
56542;DHT22;42438;53.174;6.730;2022-11-20T16:50:21;1.70;99.90
56542;DHT22;42438;53.174;6.730;2022-11-20T16:52:51;1.70;99.90
56542;DHT22;42438;53.174;6.730;2022-11-20T16:55:22;1.90;99.90
56542;DHT22;42438;53.174;6.730;2022-11-20T16:57:53;1.90;99.90
56542;DHT22;42438;53.174;6.730;2022-11-20T17:00:23;2.00;99.90
56542;DHT22;42438;53.174;6.730;2022-11-20T17:02:54;2.20;99.90
56542;DHT22;42438;53.174;6.730;2022-11-20T17:05:25;1.70;99.90
56542;DHT22;42438;53.174;6.730;2022-11-20T17:07:55;1.70;99.90
56542;DHT22;42438;53.174;6.730;2022-11-20T17:10:26;1.80;99.90
56542;DHT22;42438;53.174;6.730;2022-11-20T17:12:57;1.70;99.90
56542;DHT22;42438;53.174;6.730;2022-11-20T17:15:27;1.70;99.90
56542;DHT22;42438;53.174;6.730;2022-11-20T17:17:58;1.70;99.90
56542;DHT22;42438;53.174;6.730;2022-11-20T17:20:29;1.90;99.90
56542;DHT22;42438;53.174;6.730;2022-11-20T17:23:00;1.60;99.90
56542;DHT22;42438;53.174;6.730;2022-11-20T17:25:32;1.90;99.90
56542;DHT22;42438;53.174;6.730;2022-11-20T17:28:03;1.60;99.90
56542;DHT22;42438;53.174;6.730;2022-11-20T17:30:34;1.60;99.90
56542;DHT22;42438;53.174;6.730;2022-11-20T17:33:05;1.70;99.90
56542;DHT22;42438;53.174;6.730;2022-11-20T17:35:36;2.00;99.90
56542;DHT22;42438;53.174;6.730;2022-11-20T17:38:06;1.60;99.90
56542;DHT22;42438;53.174;6.730;2022-11-20T17:40:37;1.60;99.90
56542;DHT22;42438;53.174;6.730;2022-11-20T17:43:07;1.60;99.90
56542;DHT22;42438;53.174;6.730;2022-11-20T17:45:38;1.60;99.90
56542;DHT22;42438;53.174;6.730;2022-11-20T17:48:09;1.60;99.90
56542;DHT22;42438;53.174;6.730;2022-11-20T17:50:40;1.60;99.90
56542;DHT22;42438;53.174;6.730;2022-11-20T17:53:10;1.60;99.90
56542;DHT22;42438;53.174;6.730;2022-11-20T17:55:41;1.60;99.90
56542;DHT22;42438;53.174;6.730;2022-11-20T17:58:30;1.60;99.90
56542;DHT22;42438;53.174;6.730;2022-11-20T18:01:05;1.60;99.90
56542;DHT22;42438;53.174;6.730;2022-11-20T18:03:36;1.50;99.90
56542;DHT22;42438;53.174;6.730;2022-11-20T18:06:18;1.50;99.90